Archival Weather

NSFA McMurdo Sound

NSFA McMurdo Sound, Antarctica (NZCM)

Report from: Saturday, April 1, 2023 7:55 PM UTC
Current time: Monday, July 22, 2024 10:43 AM UTC

Current weather – Weather history – Daily summaries
Weather forecast

Temperature-19.9°C (-3.8°F)
Wind chill-25.8°C (-14.4°F)
Dew point-24.6°C (-12.3°F)
Winds 4 kts (2.1 m/s, 4.6 mph) East (90°)
Visibility6.2 mi. (10 km)
Clouds Sky clear
Altimeter29.83 in.Hg (1010 mB)
Relative humidity66 %
Density altitude-4,368 ft. (-1,331 m)
Sea-level pressure101.1 kPa (1011 mB, 29.85 in.Hg)
Remarks Fully automated report
Automated weather observing station with precipitation discriminator
Flight conditions Visual Meteorological Conditions
Raw dataNZCM 011955Z AUTO 09004KT 9999 CLR M20/M25 A2983 RMK AO2 SLP109 T11991246
An error has occurred. This application may no longer respond until reloaded. Reload 🗙